Flight Track Log - Related Links

Times and Time Zones

All times are in EDT time to prevent confusion due to time zone crossing. See the N421CW flight status page for this flight to view local times or setup timezone preferences in your user account.


Time Position Orientation Groundspeed Altitude Reporting Facility
EDT Latitude Longitude Course Direction KTS MPH feet Rate Location/Type
Sun 06:02:57 PM 34.4758 -93.4811 195° South 152 175 3,700  Level Memphis Center
Sun 06:03:57 PM 34.4422 -93.4975 202° Southwest 93 107 4,700 1,008 Climbing Memphis Center
Sun 06:04:56 PM 34.4106 -93.5089 197° South 106 122 5,700 1,059 Climbing Memphis Center
Sun 06:05:56 PM 34.3769 -93.5203 196° South 118 136 6,800 1,050 Climbing Memphis Center
Sun 06:06:56 PM 34.3431 -93.5342 199° South 130 150 7,800 1,000 Climbing Memphis Center
Sun 06:07:56 PM 34.3136 -93.5508 205° Southwest 130 150 8,800 1,087 Climbing Memphis Center
Sun 06:08:00 PM 34.2152 -93.6390 195° South  Level Estimated
Sun 06:09:03 PM 34.2728 -93.5608 191° South 129 148 10,100  Level Fort Worth Center
Sun 06:10:04 PM 34.2419 -93.5747 200° South 129 148 11,200 1,050 Climbing Fort Worth Center
Sun 06:11:03 PM 34.2067 -93.5839 192° South 129 148 12,200 1,008 Climbing Fort Worth Center
Sun 06:12:03 PM 34.1739 -93.5978 199° South 129 148 13,200 1,000 Climbing Fort Worth Center
Sun 06:13:03 PM 34.1367 -93.6122 198° South 129 148 14,200 1,000 Climbing Fort Worth Center
Sun 06:14:03 PM 34.1017 -93.6236 195° South 129 148 15,200 1,000 Climbing Fort Worth Center
Sun 06:15:03 PM 34.0644 -93.6378 197° South 129 148 16,200 950 Climbing Fort Worth Center
Sun 06:16:03 PM 34.0250 -93.6494 194° South 140 161 17,100 900 Climbing Fort Worth Center
Sun 06:17:03 PM 33.9881 -93.6636 198° South 140 161 18,000 900 Climbing Fort Worth Center
Sun 06:18:03 PM 33.9508 -93.6778 198° South 146 168 18,900 850 Climbing Fort Worth Center
Sun 06:19:03 PM 33.9117 -93.6919 197° South 146 168 19,700 850 Climbing Fort Worth Center
Sun 06:20:03 PM 33.8725 -93.7061 197° South 146 168 20,600 850 Climbing Fort Worth Center
Sun 06:21:03 PM 33.8331 -93.7203 197° South 146 168 21,400 650 Climbing Fort Worth Center
Sun 06:22:03 PM 33.7878 -93.7347 195° South 146 168 21,900 300 Climbing Fort Worth Center
Sun 06:23:03 PM 33.7381 -93.7542 198° South 170 196 22,000  Climbing Fort Worth Center
Sun 06:24:03 PM 33.6906 -93.7689 194° South 186 214 21,900 -50 Descending Fort Worth Center
Sun 06:25:03 PM 33.6369 -93.7883 197° South 199 229 21,900  Level Fort Worth Center
Sun 06:26:03 PM 33.5811 -93.8083 197° South 204 235 21,900  Level Fort Worth Center
Sun 06:27:03 PM 33.5253 -93.8281 196° South 204 235 21,900  Level Fort Worth Center
Sun 06:28:03 PM 33.4694 -93.8453 194° South 204 235 21,900  Level Fort Worth Center
Sun 06:29:03 PM 33.4136 -93.8647 196° South 204 235 21,900  Level Fort Worth Center
Sun 06:30:03 PM 33.3539 -93.8897 199° South 216 249 21,900  Level Fort Worth Center
Sun 06:31:03 PM 33.2981 -93.9092 196° South 216 249 21,900  Level Fort Worth Center
Sun 06:32:03 PM 33.2319 -93.9292 194° South 224 258 21,900  Level Fort Worth Center
Sun 06:33:03 PM 33.1761 -93.9489 196° South 219 252 21,900  Level Fort Worth Center
Sun 06:34:03 PM 33.1203 -93.9708 198° South 219 252 21,900  Level Fort Worth Center
Sun 06:35:03 PM 33.0625 -93.9903 196° South 219 252 21,900  Level Fort Worth Center
Sun 06:36:03 PM 33.0044 -94.0100 196° South 219 252 21,900  Level Fort Worth Center
Sun 06:37:03 PM 32.9467 -94.0294 196° South 219 252 21,900  Level Fort Worth Center
Sun 06:38:03 PM 32.8908 -94.0489 196° South 219 252 21,900  Level Fort Worth Center
Sun 06:39:03 PM 32.8328 -94.0683 196° South 219 252 21,900  Level Fort Worth Center
Sun 06:40:03 PM 32.7747 -94.0878 196° South 219 252 21,900  Level Fort Worth Center
Sun 06:41:03 PM 32.7192 -94.1097 198° South 219 252 21,900  Level Fort Worth Center
Sun 06:42:03 PM 32.6611 -94.1289 196° South 219 252 21,900  Level Fort Worth Center
Sun 06:43:03 PM 32.6031 -94.1483 196° South 219 252 21,900  Level Fort Worth Center
Sun 06:44:03 PM 32.5453 -94.1678 196° South 219 252 21,900  Level Fort Worth Center
Sun 06:45:03 PM 32.4894 -94.1869 196° South 219 252 21,900  Level Fort Worth Center
Sun 06:46:03 PM 32.4314 -94.2064 196° South 219 252 21,900  Level Fort Worth Center
Sun 06:47:03 PM 32.3736 -94.2281 198° South 224 258 21,900  Level Fort Worth Center
Sun 06:48:03 PM 32.3175 -94.2447 194° South 224 258 21,900  Level Fort Worth Center
Sun 06:49:03 PM 32.2597 -94.2664 198° South 224 258 21,900  Level Fort Worth Center
Sun 06:50:03 PM 32.2039 -94.2881 198° South 224 258 21,900  Level Fort Worth Center
Sun 06:51:03 PM 32.1458 -94.3097 198° South 224 258 21,900  Level Fort Worth Center
Sun 06:52:03 PM 32.0900 -94.3311 198° South 224 258 21,900  Level Fort Worth Center
Sun 06:53:03 PM 32.0319 -94.3478 194° South 224 258 21,900  Level Fort Worth Center
Sun 06:54:03 PM 31.9761 -94.3692 198° South 224 258 21,900  Level Fort Worth Center
Sun 06:55:58 PM 31.8708 -94.4031 195° South 214 246 21,900  Level Houston Center
Sun 06:57:00 PM 31.8136 -94.4219 196° South 214 246 21,900  Level Houston Center
Sun 06:58:02 PM 31.7569 -94.4417 196° South 212 244 21,900  Level Houston Center
Sun 06:59:03 PM 31.7000 -94.4614 196° South 211 243 21,900  Level Houston Center
Sun 07:00:05 PM 31.6283 -94.4625 181° South 213 245 21,900  Level Houston Center
Sun 07:01:07 PM 31.5675 -94.4664 183° South 216 249 21,900  Level Houston Center
Sun 07:02:09 PM 31.5050 -94.4686 182° South 222 255 21,900  Level Houston Center
Sun 07:03:11 PM 31.4428 -94.4719 183° South 222 255 21,900  Level Houston Center
Sun 07:04:13 PM 31.3814 -94.4739 182° South 220 253 21,900  Level Houston Center
Sun 07:05:15 PM 31.3197 -94.4756 181° South 219 252 21,900 -339 Level Houston Center
Sun 07:06:17 PM 31.2553 -94.4792 183° South 227 261 21,200 -732 Descending Houston Center
Sun 07:07:18 PM 31.1878 -94.4828 183° South 236 272 20,400 -927 Descending Houston Center
Sun 07:08:20 PM 31.1050 -94.4861 182° South 244 281 19,300 -1,210 Descending Houston Center
Sun 07:09:22 PM 31.0328 -94.4900 183° South 255 293 17,900 -1,355 Descending Houston Center
Sun 07:10:24 PM 30.9619 -94.4928 182° South 256 295 16,500 -1,452 Descending Houston Center
Sun 07:11:26 PM 30.8928 -94.4956 182° South 249 287 14,900 -1,452 Descending Houston Center
Sun 07:12:28 PM 30.8267 -94.4994 183° South 241 277 13,500 -1,415 Descending Houston Center
Sun 07:13:29 PM 30.7628 -94.5014 181° South 233 268 12,000 -1,463 Descending Houston Center
Sun 07:14:31 PM 30.6989 -94.5039 182° South 230 265 10,500 -1,452 Descending Houston Center
Sun 07:15:33 PM 30.6358 -94.5067 182° South 228 262 9,000 -1,597 Descending Houston Center
Sun 07:16:35 PM 30.5614 -94.5114 183° South 224 258 7,200 -1,317 Descending Houston Center
Sun 07:17:36 PM 30.5022 -94.5194 187° South 216 249 6,300 -634 Descending Houston Center
Sun 07:18:38 PM 30.4511 -94.5400 199° South 199 229 5,900 -194 Descending Houston Center
Sun 07:19:40 PM 30.4083 -94.5681 209° Southwest 182 209 5,900 -290 Level Houston Center
Sun 07:20:42 PM 30.3642 -94.5978 210° Southwest 182 209 5,300 -488 Descending Houston Center
Sun 07:21:43 PM 30.3200 -94.6258 209° Southwest 182 209 4,900 -244 Descending Houston Center
Sun 07:22:45 PM 30.2786 -94.6553 212° Southwest 177 204 4,800 -532 Descending Houston Center
Sun 07:23:47 PM 30.2350 -94.6839 210° Southwest 178 205 3,800 -829 Descending Houston Center
Sun 07:24:48 PM 30.1797 -94.7167 207° Southwest 185 213 3,100 -390 Descending Houston Center
Sun 07:25:50 PM 30.1414 -94.7419 210° Southwest 167 192 3,000 -97 Descending Houston Center
Sun 07:26:52 PM 30.1033 -94.7656 208° Southwest 157 181 2,900 -48 Descending Houston Center
Sun 07:27:54 PM 30.0661 -94.7908 210° Southwest 154 177 2,900  Level Houston Center
Sun 07:28:55 PM 30.0283 -94.8139 208° Southwest 155 178 2,900  Level Houston Center
Sun 07:29:57 PM 29.9914 -94.8381 210° Southwest 153 176 2,900  Level Houston Center
Sun 07:30:59 PM 29.9539 -94.8625 209° Southwest 151 174 2,900  Level Houston Center
Sun 07:32:01 PM 29.9100 -94.8894 208° Southwest 152 175 2,900  Level Houston Center
Sun 07:33:02 PM 29.8744 -94.9119 209° Southwest 148 170 2,900  Level Houston Center
Sun 07:34:04 PM 29.8381 -94.9356 209° Southwest 150 173 2,900  Level Houston Center
Sun 07:35:06 PM 29.8036 -94.9569 208° Southwest 144 166 2,900 -194 Level Houston Center
Sun 07:36:08 PM 29.7689 -94.9794 209° Southwest 142 163 2,500 -439 Descending Houston Center
Sun 07:37:09 PM 29.7353 -95.0106 219° Southwest 151 174 2,000 -244 Descending Houston Center
Sun 07:38:11 PM 29.7067 -95.0406 222° Southwest 146 168 2,000 -48 Level Houston Center
Sun 07:39:13 PM 29.6797 -95.0744 228° Southwest 125 144 1,900 -390 Descending Houston Center
Sun 07:40:14 PM 29.6583 -95.0975 223° Southwest 113 130 1,200 -537 Descending Houston Center
Sun 07:41:16 PM 29.6400 -95.1172 223° Southwest 101 116 800 -435 Descending Houston Center
Sun 07:42:18 PM 29.6211 -95.1378 223° Southwest 96 110 300 -484 Descending Houston Center
Sun 07:44:00 PM 29.6000 -95.1500 213° Southwest  Level FlightAware Approximate

Login

Don't have an account? Register now (free) for customized features, flight alerts, and more!